Mumbai Express — V2AH1 — position and weather

sailwx.info

Track history (hours):
 
Tides and Currents Weather Stations Pressure Air Temp Water Temp Dewpoint Dewpoint Depression Visibility Wind Speed Wind Dir Waves Ship Positions

Mumbai Express

Last reported at 2016-Feb-05 19:29 UTC. Time now 2016-Feb-08 17:02 UTC.
Position N 30°31' E 122°24'.

Length 260.7 m; beam 32.3 m; draft 12.5 m.

Type: Ship. MMSI: 304010914.

Date/timePositionNaut miles runAvg speedWind from/ knotsBaromVisibWave heightAir tempDewpointWater temp
2016-Feb-05 19:29N 30°31' E 122°24'1414.5
2016-Feb-05 18:33N 30°34' E 122°09'6 6.1
2016-Feb-05 17:33N 30°38' E 122°03'0 0.0
2016-Feb-05 15:33N 30°38' E 122°03'0 0.0
2016-Feb-05 13:29N 30°38' E 122°03'0 0.0
2016-Feb-05 12:31N 30°38' E 122°03'0 0.0
2016-Feb-05 11:31N 30°38' E 122°03'0 0.0
2016-Feb-05 08:21N 30°38' E 122°03'2 0.8
2016-Feb-05 05:23N 30°36' E 122°05'9 9.9
2016-Feb-05 04:28N 30°34' E 122°15'6 5.6
2016-Feb-05 03:27N 30°33' E 122°22'2412.4
2016-Feb-05 01:32N 30°26' E 122°48'48 1.0
2016-Feb-03 00:15N 29°41' E 122°29'811.6
2016-Feb-02 23:33N 29°44' E 122°20'1010.2
2016-Feb-02 22:33N 29°51' E 122°12'9 0.5
2016-Feb-02 03:27N 29°54' E 122°02'1 0.0
2016-Feb-01 08:32N 29°54' E 122°03'2 2.3
2016-Feb-01 07:28N 29°55' E 122°06'5 5.2
2016-Feb-01 06:32N 29°54' E 122°11'8 8.2
2016-Feb-01 05:32N 29°47' E 122°16'8 7.5
2016-Feb-01 04:31N 29°44' E 122°24'7 6.7
2016-Feb-01 03:32N 29°42' E 122°31'7 7.4
2016-Feb-01 02:32N 29°41' E 122°40'  
2016-Jan-29 07:27N 33°40' E 129°45'8 9.0
2016-Jan-29 06:33N 33°40' E 129°55'9 8.8
2016-Jan-29 05:32N 33°42' E 130°05'8 8.4
2016-Jan-29 04:33N 33°43' E 130°15'8 8.1
2016-Jan-29 03:33N 33°39' E 130°24'1 0.7
2016-Jan-29 02:32N 33°39' E 130°24'0 0.0
2016-Jan-29 01:32N 33°39' E 130°24'0 0.0
2016-Jan-29 00:32N 33°39' E 130°24'0 0.0
2016-Jan-28 23:31N 33°39' E 130°24'0 0.0
2016-Jan-28 22:33N 33°39' E 130°24'0 0.0
2016-Jan-28 21:32N 33°39' E 130°24'0 0.0
2016-Jan-28 20:32N 33°39' E 130°24'0 0.0
2016-Jan-28 19:32N 33°39' E 130°24'0 0.0
2016-Jan-28 18:32N 33°39' E 130°24'0 0.0
2016-Jan-28 17:31N 33°39' E 130°24'0 0.0
2016-Jan-28 16:31N 33°39' E 130°24'0 0.1
2016-Jan-28 15:33N 33°39' E 130°24'0 0.0
2016-Jan-28 14:33N 33°39' E 130°24'0 0.0
2016-Jan-28 13:32N 33°39' E 130°24'0 0.0
2016-Jan-28 12:32N 33°39' E 130°24'0 0.0
2016-Jan-28 11:31N 33°39' E 130°24'1 1.1
2016-Jan-28 10:33N 33°39' E 130°23'8 7.4
2016-Jan-28 09:33N 33°42' E 130°15'11 3.2
2016-Jan-28 06:12N 33°53' E 130°15'0 0.6
2016-Jan-28 05:28N 33°53' E 130°16'  
Track history (hours):
 
Tides and Currents Weather Stations Pressure Air Temp Water Temp Dewpoint Dewpoint Depression Visibility Wind Speed Wind Dir Waves Ship Positions

Mumbai Express

Last reported at 2016-Feb-05 19:29 UTC. Time now 2016-Feb-08 17:02 UTC.
Position N 30°31' E 122°24'.

Length 260.7 m; beam 32.3 m; draft 12.5 m.

Type: Ship. MMSI: 304010914.

Date/timePositionNaut miles runAvg speedWind from/ knotsBaromVisibWave heightAir tempDewpointWater temp
2016-Feb-05 19:29N 30°31' E 122°24'1414.5
2016-Feb-05 18:33N 30°34' E 122°09'6 6.1
2016-Feb-05 17:33N 30°38' E 122°03'0 0.0
2016-Feb-05 15:33N 30°38' E 122°03'0 0.0
2016-Feb-05 13:29N 30°38' E 122°03'0 0.0
2016-Feb-05 12:31N 30°38' E 122°03'0 0.0
2016-Feb-05 11:31N 30°38' E 122°03'0 0.0
2016-Feb-05 08:21N 30°38' E 122°03'2 0.8
2016-Feb-05 05:23N 30°36' E 122°05'9 9.9
2016-Feb-05 04:28N 30°34' E 122°15'6 5.6
2016-Feb-05 03:27N 30°33' E 122°22'2412.4
2016-Feb-05 01:32N 30°26' E 122°48'48 1.0
2016-Feb-03 00:15N 29°41' E 122°29'811.6
2016-Feb-02 23:33N 29°44' E 122°20'1010.2
2016-Feb-02 22:33N 29°51' E 122°12'9 0.5
2016-Feb-02 03:27N 29°54' E 122°02'1 0.0
2016-Feb-01 08:32N 29°54' E 122°03'2 2.3
2016-Feb-01 07:28N 29°55' E 122°06'5 5.2
2016-Feb-01 06:32N 29°54' E 122°11'8 8.2
2016-Feb-01 05:32N 29°47' E 122°16'8 7.5
2016-Feb-01 04:31N 29°44' E 122°24'7 6.7
2016-Feb-01 03:32N 29°42' E 122°31'7 7.4
2016-Feb-01 02:32N 29°41' E 122°40'  
2016-Jan-29 07:27N 33°40' E 129°45'8 9.0
2016-Jan-29 06:33N 33°40' E 129°55'9 8.8
2016-Jan-29 05:32N 33°42' E 130°05'8 8.4
2016-Jan-29 04:33N 33°43' E 130°15'8 8.1
2016-Jan-29 03:33N 33°39' E 130°24'1 0.7
2016-Jan-29 02:32N 33°39' E 130°24'0 0.0
2016-Jan-29 01:32N 33°39' E 130°24'0 0.0
2016-Jan-29 00:32N 33°39' E 130°24'0 0.0
2016-Jan-28 23:31N 33°39' E 130°24'0 0.0
2016-Jan-28 22:33N 33°39' E 130°24'0 0.0
2016-Jan-28 21:32N 33°39' E 130°24'0 0.0
2016-Jan-28 20:32N 33°39' E 130°24'0 0.0
2016-Jan-28 19:32N 33°39' E 130°24'0 0.0
2016-Jan-28 18:32N 33°39' E 130°24'0 0.0
2016-Jan-28 17:31N 33°39' E 130°24'0 0.0
2016-Jan-28 16:31N 33°39' E 130°24'0 0.1
2016-Jan-28 15:33N 33°39' E 130°24'0 0.0
2016-Jan-28 14:33N 33°39' E 130°24'0 0.0
2016-Jan-28 13:32N 33°39' E 130°24'0 0.0
2016-Jan-28 12:32N 33°39' E 130°24'0 0.0
2016-Jan-28 11:31N 33°39' E 130°24'1 1.1
2016-Jan-28 10:33N 33°39' E 130°23'8 7.4
2016-Jan-28 09:33N 33°42' E 130°15'11 3.2
2016-Jan-28 06:12N 33°53' E 130°15'0 0.6
2016-Jan-28 05:28N 33°53' E 130°16'  

Dump ship's entire track history